sensor_id;sensor_type;location;lat;lon;timestamp;temperature;humidity
24262;DHT22;12385;51.412;5.540;2023-10-31T00:01:35;11.30;99.90
24262;DHT22;12385;51.412;5.540;2023-10-31T00:04:00;11.20;99.90
24262;DHT22;12385;51.412;5.540;2023-10-31T00:06:26;11.20;99.90
24262;DHT22;12385;51.412;5.540;2023-10-31T00:08:52;11.20;99.90
24262;DHT22;12385;51.412;5.540;2023-10-31T00:11:17;11.20;99.90
24262;DHT22;12385;51.412;5.540;2023-10-31T00:13:43;11.20;99.90
24262;DHT22;12385;51.412;5.540;2023-10-31T00:16:09;11.20;99.90
24262;DHT22;12385;51.412;5.540;2023-10-31T00:18:34;11.20;99.90
24262;DHT22;12385;51.412;5.540;2023-10-31T00:21:00;11.20;99.90
24262;DHT22;12385;51.412;5.540;2023-10-31T00:23:26;11.20;99.90
24262;DHT22;12385;51.412;5.540;2023-10-31T00:25:51;11.20;99.90
24262;DHT22;12385;51.412;5.540;2023-10-31T00:28:17;11.20;99.90
24262;DHT22;12385;51.412;5.540;2023-10-31T00:30:43;11.10;99.90
24262;DHT22;12385;51.412;5.540;2023-10-31T00:33:08;11.10;99.90
24262;DHT22;12385;51.412;5.540;2023-10-31T00:35:34;11.10;99.90
24262;DHT22;12385;51.412;5.540;2023-10-31T00:38:00;11.10;99.90
24262;DHT22;12385;51.412;5.540;2023-10-31T00:40:26;11.10;99.90
24262;DHT22;12385;51.412;5.540;2023-10-31T00:42:51;11.10;99.90
24262;DHT22;12385;51.412;5.540;2023-10-31T00:45:17;11.10;99.90
24262;DHT22;12385;51.412;5.540;2023-10-31T00:47:43;11.10;99.90
24262;DHT22;12385;51.412;5.540;2023-10-31T00:50:09;11.20;99.90
24262;DHT22;12385;51.412;5.540;2023-10-31T00:52:35;11.20;99.90
24262;DHT22;12385;51.412;5.540;2023-10-31T00:55:00;11.10;99.90
24262;DHT22;12385;51.412;5.540;2023-10-31T00:57:26;11.10;99.90
24262;DHT22;12385;51.412;5.540;2023-10-31T00:59:51;11.20;99.90
24262;DHT22;12385;51.412;5.540;2023-10-31T01:02:17;11.20;99.90
24262;DHT22;12385;51.412;5.540;2023-10-31T01:04:43;11.20;99.90
24262;DHT22;12385;51.412;5.540;2023-10-31T01:07:09;11.20;99.90
24262;DHT22;12385;51.412;5.540;2023-10-31T01:09:38;11.20;99.90
24262;DHT22;12385;51.412;5.540;2023-10-31T01:12:04;11.20;99.90
24262;DHT22;12385;51.412;5.540;2023-10-31T01:14:30;11.20;99.90
24262;DHT22;12385;51.412;5.540;2023-10-31T01:16:56;11.10;99.90
24262;DHT22;12385;51.412;5.540;2023-10-31T01:19:21;11.10;99.90
24262;DHT22;12385;51.412;5.540;2023-10-31T01:21:47;11.20;99.90
24262;DHT22;12385;51.412;5.540;2023-10-31T01:24:13;11.10;99.90
24262;DHT22;12385;51.412;5.540;2023-10-31T01:26:38;11.10;99.90
24262;DHT22;12385;51.412;5.540;2023-10-31T01:29:04;11.20;99.90
24262;DHT22;12385;51.412;5.540;2023-10-31T01:31:30;11.20;99.90
24262;DHT22;12385;51.412;5.540;2023-10-31T01:33:55;11.20;99.90
24262;DHT22;12385;51.412;5.540;2023-10-31T01:36:25;11.20;99.90
24262;DHT22;12385;51.412;5.540;2023-10-31T01:38:51;11.20;99.90
24262;DHT22;12385;51.412;5.540;2023-10-31T01:41:17;11.20;99.90
24262;DHT22;12385;51.412;5.540;2023-10-31T01:43:43;11.20;99.90
24262;DHT22;12385;51.412;5.540;2023-10-31T01:46:09;11.20;99.90
24262;DHT22;12385;51.412;5.540;2023-10-31T01:48:34;11.20;99.90
24262;DHT22;12385;51.412;5.540;2023-10-31T01:51:02;11.20;99.90
24262;DHT22;12385;51.412;5.540;2023-10-31T01:53:31;11.20;99.90
24262;DHT22;12385;51.412;5.540;2023-10-31T01:56:00;11.10;99.90
24262;DHT22;12385;51.412;5.540;2023-10-31T01:58:29;11.10;99.90
24262;DHT22;12385;51.412;5.540;2023-10-31T02:00:56;11.10;99.90
24262;DHT22;12385;51.412;5.540;2023-10-31T02:03:22;11.20;99.90
24262;DHT22;12385;51.412;5.540;2023-10-31T02:05:48;11.10;99.90
24262;DHT22;12385;51.412;5.540;2023-10-31T02:08:13;11.10;99.90
24262;DHT22;12385;51.412;5.540;2023-10-31T02:10:39;11.10;99.90
24262;DHT22;12385;51.412;5.540;2023-10-31T02:13:14;11.20;99.90
24262;DHT22;12385;51.412;5.540;2023-10-31T02:15:40;11.20;99.90
24262;DHT22;12385;51.412;5.540;2023-10-31T02:18:06;11.20;99.90
24262;DHT22;12385;51.412;5.540;2023-10-31T02:20:32;11.20;99.90
24262;DHT22;12385;51.412;5.540;2023-10-31T02:22:58;11.20;99.90
24262;DHT22;12385;51.412;5.540;2023-10-31T02:25:24;11.20;99.90
24262;DHT22;12385;51.412;5.540;2023-10-31T02:27:50;11.20;99.90
24262;DHT22;12385;51.412;5.540;2023-10-31T02:30:16;11.20;99.90
24262;DHT22;12385;51.412;5.540;2023-10-31T02:32:45;11.20;99.90
24262;DHT22;12385;51.412;5.540;2023-10-31T02:35:10;11.20;99.90
24262;DHT22;12385;51.412;5.540;2023-10-31T02:37:37;11.20;99.90
24262;DHT22;12385;51.412;5.540;2023-10-31T02:40:03;11.20;99.90
24262;DHT22;12385;51.412;5.540;2023-10-31T02:42:28;11.20;99.90
24262;DHT22;12385;51.412;5.540;2023-10-31T02:44:54;11.20;99.90
24262;DHT22;12385;51.412;5.540;2023-10-31T02:47:21;11.20;99.90
24262;DHT22;12385;51.412;5.540;2023-10-31T02:49:47;11.20;99.90
24262;DHT22;12385;51.412;5.540;2023-10-31T02:52:13;11.20;99.90
24262;DHT22;12385;51.412;5.540;2023-10-31T02:54:38;11.20;99.90
24262;DHT22;12385;51.412;5.540;2023-10-31T02:57:04;11.30;99.90
24262;DHT22;12385;51.412;5.540;2023-10-31T02:59:30;11.30;99.90
24262;DHT22;12385;51.412;5.540;2023-10-31T03:01:56;11.20;99.90
24262;DHT22;12385;51.412;5.540;2023-10-31T03:04:23;11.30;99.90
24262;DHT22;12385;51.412;5.540;2023-10-31T03:06:48;11.30;99.90
24262;DHT22;12385;51.412;5.540;2023-10-31T03:09:15;11.30;99.90
24262;DHT22;12385;51.412;5.540;2023-10-31T03:11:42;11.20;99.90
24262;DHT22;12385;51.412;5.540;2023-10-31T03:14:07;11.30;99.90
24262;DHT22;12385;51.412;5.540;2023-10-31T03:16:33;11.20;99.90
24262;DHT22;12385;51.412;5.540;2023-10-31T03:18:58;11.20;99.90
24262;DHT22;12385;51.412;5.540;2023-10-31T03:21:24;11.20;99.90
24262;DHT22;12385;51.412;5.540;2023-10-31T03:23:51;11.30;99.90
24262;DHT22;12385;51.412;5.540;2023-10-31T03:26:19;11.30;99.90
24262;DHT22;12385;51.412;5.540;2023-10-31T03:28:45;11.30;99.90
24262;DHT22;12385;51.412;5.540;2023-10-31T03:31:12;11.30;99.90
24262;DHT22;12385;51.412;5.540;2023-10-31T03:33:38;11.30;99.90
24262;DHT22;12385;51.412;5.540;2023-10-31T03:36:04;11.30;99.90
24262;DHT22;12385;51.412;5.540;2023-10-31T03:38:31;11.20;99.90
24262;DHT22;12385;51.412;5.540;2023-10-31T03:40:56;11.20;99.90
24262;DHT22;12385;51.412;5.540;2023-10-31T03:43:22;11.20;99.90
24262;DHT22;12385;51.412;5.540;2023-10-31T03:45:48;11.20;99.90
24262;DHT22;12385;51.412;5.540;2023-10-31T03:48:15;11.20;99.90
24262;DHT22;12385;51.412;5.540;2023-10-31T03:50:41;11.20;99.90
24262;DHT22;12385;51.412;5.540;2023-10-31T03:53:08;11.20;99.90
24262;DHT22;12385;51.412;5.540;2023-10-31T03:55:34;11.20;99.90
24262;DHT22;12385;51.412;5.540;2023-10-31T03:57:59;11.20;99.90
24262;DHT22;12385;51.412;5.540;2023-10-31T04:00:25;11.20;99.90
24262;DHT22;12385;51.412;5.540;2023-10-31T04:02:52;11.20;99.90
24262;DHT22;12385;51.412;5.540;2023-10-31T04:05:18;11.20;99.90
24262;DHT22;12385;51.412;5.540;2023-10-31T04:07:45;11.20;99.90
24262;DHT22;12385;51.412;5.540;2023-10-31T04:10:11;11.20;99.90
24262;DHT22;12385;51.412;5.540;2023-10-31T04:12:36;11.20;99.90
24262;DHT22;12385;51.412;5.540;2023-10-31T04:15:03;11.20;99.90
24262;DHT22;12385;51.412;5.540;2023-10-31T04:17:28;11.20;99.90
24262;DHT22;12385;51.412;5.540;2023-10-31T04:19:54;11.20;99.90
24262;DHT22;12385;51.412;5.540;2023-10-31T04:22:20;11.20;99.90
24262;DHT22;12385;51.412;5.540;2023-10-31T04:24:45;11.20;99.90
24262;DHT22;12385;51.412;5.540;2023-10-31T04:27:12;11.20;99.90
24262;DHT22;12385;51.412;5.540;2023-10-31T04:29:38;11.20;99.90
24262;DHT22;12385;51.412;5.540;2023-10-31T04:32:04;11.20;99.90
24262;DHT22;12385;51.412;5.540;2023-10-31T04:34:30;11.20;99.90
24262;DHT22;12385;51.412;5.540;2023-10-31T04:36:55;11.30;99.90
24262;DHT22;12385;51.412;5.540;2023-10-31T04:39:21;11.30;99.90
24262;DHT22;12385;51.412;5.540;2023-10-31T04:41:47;11.30;99.90
24262;DHT22;12385;51.412;5.540;2023-10-31T04:44:13;11.30;99.90
24262;DHT22;12385;51.412;5.540;2023-10-31T04:46:39;11.30;99.90
24262;DHT22;12385;51.412;5.540;2023-10-31T04:49:05;11.30;99.90
24262;DHT22;12385;51.412;5.540;2023-10-31T04:51:37;11.30;99.90
24262;DHT22;12385;51.412;5.540;2023-10-31T04:54:03;11.30;99.90
24262;DHT22;12385;51.412;5.540;2023-10-31T04:56:29;11.30;99.90
24262;DHT22;12385;51.412;5.540;2023-10-31T04:58:54;11.30;99.90
24262;DHT22;12385;51.412;5.540;2023-10-31T05:01:20;11.30;99.90
24262;DHT22;12385;51.412;5.540;2023-10-31T05:03:46;11.30;99.90
24262;DHT22;12385;51.412;5.540;2023-10-31T05:06:18;11.30;99.90
24262;DHT22;12385;51.412;5.540;2023-10-31T05:08:44;11.20;99.90
24262;DHT22;12385;51.412;5.540;2023-10-31T05:11:09;11.20;99.90
24262;DHT22;12385;51.412;5.540;2023-10-31T05:13:35;11.20;99.90
24262;DHT22;12385;51.412;5.540;2023-10-31T05:16:00;11.20;99.90
24262;DHT22;12385;51.412;5.540;2023-10-31T05:18:26;11.20;99.90
24262;DHT22;12385;51.412;5.540;2023-10-31T05:20:52;11.20;99.90
24262;DHT22;12385;51.412;5.540;2023-10-31T05:23:17;11.10;99.90
24262;DHT22;12385;51.412;5.540;2023-10-31T05:25:43;11.10;99.90
24262;DHT22;12385;51.412;5.540;2023-10-31T05:28:09;11.10;99.90
24262;DHT22;12385;51.412;5.540;2023-10-31T05:30:36;11.10;99.90
24262;DHT22;12385;51.412;5.540;2023-10-31T05:33:02;11.10;99.90
24262;DHT22;12385;51.412;5.540;2023-10-31T05:35:28;11.10;99.90
24262;DHT22;12385;51.412;5.540;2023-10-31T05:37:54;11.10;99.90
24262;DHT22;12385;51.412;5.540;2023-10-31T05:40:20;11.10;99.90
24262;DHT22;12385;51.412;5.540;2023-10-31T05:42:50;11.10;99.90
24262;DHT22;12385;51.412;5.540;2023-10-31T05:45:16;11.00;99.90
24262;DHT22;12385;51.412;5.540;2023-10-31T05:47:45;11.00;99.90
24262;DHT22;12385;51.412;5.540;2023-10-31T05:50:11;11.00;99.90
24262;DHT22;12385;51.412;5.540;2023-10-31T05:52:36;11.00;99.90
24262;DHT22;12385;51.412;5.540;2023-10-31T05:55:02;11.00;99.90
24262;DHT22;12385;51.412;5.540;2023-10-31T05:57:28;11.00;99.90
24262;DHT22;12385;51.412;5.540;2023-10-31T05:59:53;11.00;99.90
24262;DHT22;12385;51.412;5.540;2023-10-31T06:02:19;10.90;99.90
24262;DHT22;12385;51.412;5.540;2023-10-31T06:04:45;10.90;99.90
24262;DHT22;12385;51.412;5.540;2023-10-31T06:07:11;10.90;99.90
24262;DHT22;12385;51.412;5.540;2023-10-31T06:09:37;10.90;99.90
24262;DHT22;12385;51.412;5.540;2023-10-31T06:12:02;10.90;99.90
24262;DHT22;12385;51.412;5.540;2023-10-31T06:14:28;10.80;99.90
24262;DHT22;12385;51.412;5.540;2023-10-31T06:16:54;10.80;99.90
24262;DHT22;12385;51.412;5.540;2023-10-31T06:19:20;10.70;99.90
24262;DHT22;12385;51.412;5.540;2023-10-31T06:21:46;10.70;99.90
24262;DHT22;12385;51.412;5.540;2023-10-31T06:24:12;10.70;99.90
24262;DHT22;12385;51.412;5.540;2023-10-31T06:26:38;10.70;99.90
24262;DHT22;12385;51.412;5.540;2023-10-31T06:29:04;10.60;99.90
24262;DHT22;12385;51.412;5.540;2023-10-31T06:31:30;10.60;99.90
24262;DHT22;12385;51.412;5.540;2023-10-31T06:33:56;10.60;99.90
24262;DHT22;12385;51.412;5.540;2023-10-31T06:36:21;10.60;99.90
24262;DHT22;12385;51.412;5.540;2023-10-31T06:38:48;10.60;99.90
24262;DHT22;12385;51.412;5.540;2023-10-31T06:41:13;10.60;99.90
24262;DHT22;12385;51.412;5.540;2023-10-31T06:43:39;10.60;99.90
24262;DHT22;12385;51.412;5.540;2023-10-31T06:46:05;10.70;99.90
24262;DHT22;12385;51.412;5.540;2023-10-31T06:48:31;10.70;99.90
24262;DHT22;12385;51.412;5.540;2023-10-31T06:50:56;10.60;99.90
24262;DHT22;12385;51.412;5.540;2023-10-31T06:53:22;10.60;99.90
24262;DHT22;12385;51.412;5.540;2023-10-31T06:55:48;10.60;99.90
24262;DHT22;12385;51.412;5.540;2023-10-31T06:58:14;10.50;99.90
24262;DHT22;12385;51.412;5.540;2023-10-31T07:00:40;10.50;99.90
24262;DHT22;12385;51.412;5.540;2023-10-31T07:03:05;10.60;99.90
24262;DHT22;12385;51.412;5.540;2023-10-31T07:05:37;10.60;99.90
24262;DHT22;12385;51.412;5.540;2023-10-31T07:08:04;10.60;99.90
24262;DHT22;12385;51.412;5.540;2023-10-31T07:10:30;10.60;99.90
24262;DHT22;12385;51.412;5.540;2023-10-31T07:12:59;10.60;99.90
24262;DHT22;12385;51.412;5.540;2023-10-31T07:15:25;10.70;99.90
24262;DHT22;12385;51.412;5.540;2023-10-31T07:17:51;10.70;99.90
24262;DHT22;12385;51.412;5.540;2023-10-31T07:20:17;10.70;99.90
24262;DHT22;12385;51.412;5.540;2023-10-31T07:22:44;10.70;99.90
24262;DHT22;12385;51.412;5.540;2023-10-31T07:25:10;10.70;99.90
24262;DHT22;12385;51.412;5.540;2023-10-31T07:27:36;10.60;99.90
24262;DHT22;12385;51.412;5.540;2023-10-31T07:30:03;10.60;99.90
24262;DHT22;12385;51.412;5.540;2023-10-31T07:32:30;10.60;99.90
24262;DHT22;12385;51.412;5.540;2023-10-31T07:34:56;10.60;99.90
24262;DHT22;12385;51.412;5.540;2023-10-31T07:37:22;10.60;99.90
24262;DHT22;12385;51.412;5.540;2023-10-31T07:39:48;10.70;99.90
24262;DHT22;12385;51.412;5.540;2023-10-31T07:42:14;10.70;99.90
24262;DHT22;12385;51.412;5.540;2023-10-31T07:44:39;10.70;99.90
24262;DHT22;12385;51.412;5.540;2023-10-31T07:47:05;10.80;99.90
24262;DHT22;12385;51.412;5.540;2023-10-31T07:49:31;10.80;99.90
24262;DHT22;12385;51.412;5.540;2023-10-31T07:51:57;10.80;99.90
24262;DHT22;12385;51.412;5.540;2023-10-31T07:54:22;10.80;99.90
24262;DHT22;12385;51.412;5.540;2023-10-31T07:56:48;10.80;99.90
24262;DHT22;12385;51.412;5.540;2023-10-31T07:59:13;10.80;99.90
24262;DHT22;12385;51.412;5.540;2023-10-31T08:01:39;10.80;99.90
24262;DHT22;12385;51.412;5.540;2023-10-31T08:04:05;10.80;99.90
24262;DHT22;12385;51.412;5.540;2023-10-31T08:06:30;10.90;99.90
24262;DHT22;12385;51.412;5.540;2023-10-31T08:08:56;10.90;99.90
24262;DHT22;12385;51.412;5.540;2023-10-31T08:11:22;10.90;99.90
24262;DHT22;12385;51.412;5.540;2023-10-31T08:13:51;10.90;99.90
24262;DHT22;12385;51.412;5.540;2023-10-31T08:16:18;10.90;99.90
24262;DHT22;12385;51.412;5.540;2023-10-31T08:18:45;10.90;99.90
24262;DHT22;12385;51.412;5.540;2023-10-31T08:21:11;10.80;99.90
24262;DHT22;12385;51.412;5.540;2023-10-31T08:23:37;10.80;99.90
24262;DHT22;12385;51.412;5.540;2023-10-31T08:26:03;10.80;99.90
24262;DHT22;12385;51.412;5.540;2023-10-31T08:28:28;10.90;99.90
24262;DHT22;12385;51.412;5.540;2023-10-31T08:30:54;10.90;99.90
24262;DHT22;12385;51.412;5.540;2023-10-31T08:33:20;10.90;99.90
24262;DHT22;12385;51.412;5.540;2023-10-31T08:35:46;11.00;99.90
24262;DHT22;12385;51.412;5.540;2023-10-31T08:38:16;11.00;99.90
24262;DHT22;12385;51.412;5.540;2023-10-31T08:40:42;11.00;99.90
24262;DHT22;12385;51.412;5.540;2023-10-31T08:43:14;11.00;99.90
24262;DHT22;12385;51.412;5.540;2023-10-31T08:45:39;11.10;99.90
24262;DHT22;12385;51.412;5.540;2023-10-31T08:48:05;11.00;99.90
24262;DHT22;12385;51.412;5.540;2023-10-31T08:50:30;11.10;99.90
24262;DHT22;12385;51.412;5.540;2023-10-31T08:52:56;11.00;99.90
24262;DHT22;12385;51.412;5.540;2023-10-31T08:55:22;11.10;99.90
24262;DHT22;12385;51.412;5.540;2023-10-31T08:57:48;11.10;99.90
24262;DHT22;12385;51.412;5.540;2023-10-31T09:00:14;11.10;99.90
24262;DHT22;12385;51.412;5.540;2023-10-31T09:02:40;11.20;99.90
24262;DHT22;12385;51.412;5.540;2023-10-31T09:05:05;11.20;99.90
24262;DHT22;12385;51.412;5.540;2023-10-31T09:07:31;11.30;99.90
24262;DHT22;12385;51.412;5.540;2023-10-31T09:09:59;11.30;99.90
24262;DHT22;12385;51.412;5.540;2023-10-31T09:12:25;11.30;99.90
24262;DHT22;12385;51.412;5.540;2023-10-31T09:14:51;11.30;99.90
24262;DHT22;12385;51.412;5.540;2023-10-31T09:17:18;11.40;99.90
24262;DHT22;12385;51.412;5.540;2023-10-31T09:19:44;11.50;99.90
24262;DHT22;12385;51.412;5.540;2023-10-31T09:22:09;11.50;99.90
24262;DHT22;12385;51.412;5.540;2023-10-31T09:24:35;11.60;99.90
24262;DHT22;12385;51.412;5.540;2023-10-31T09:27:01;11.60;99.90
24262;DHT22;12385;51.412;5.540;2023-10-31T09:29:26;11.60;99.90
24262;DHT22;12385;51.412;5.540;2023-10-31T09:31:53;11.50;99.90
24262;DHT22;12385;51.412;5.540;2023-10-31T09:34:18;11.50;99.90
24262;DHT22;12385;51.412;5.540;2023-10-31T09:36:44;11.50;99.90
24262;DHT22;12385;51.412;5.540;2023-10-31T09:39:09;11.60;99.90
24262;DHT22;12385;51.412;5.540;2023-10-31T09:41:36;11.60;99.90
24262;DHT22;12385;51.412;5.540;2023-10-31T09:44:01;11.60;99.90
24262;DHT22;12385;51.412;5.540;2023-10-31T09:46:28;11.60;99.90
24262;DHT22;12385;51.412;5.540;2023-10-31T09:48:55;11.60;99.90
24262;DHT22;12385;51.412;5.540;2023-10-31T09:51:21;11.60;99.90
24262;DHT22;12385;51.412;5.540;2023-10-31T09:53:48;11.70;99.90
24262;DHT22;12385;51.412;5.540;2023-10-31T09:56:14;11.70;99.90
24262;DHT22;12385;51.412;5.540;2023-10-31T09:58:40;11.80;99.90
24262;DHT22;12385;51.412;5.540;2023-10-31T10:01:07;11.80;99.90
24262;DHT22;12385;51.412;5.540;2023-10-31T10:03:32;11.80;99.90
24262;DHT22;12385;51.412;5.540;2023-10-31T10:05:58;11.90;99.90
24262;DHT22;12385;51.412;5.540;2023-10-31T10:08:24;12.00;99.90
24262;DHT22;12385;51.412;5.540;2023-10-31T10:10:50;12.00;99.90
24262;DHT22;12385;51.412;5.540;2023-10-31T10:13:23;12.10;99.90
24262;DHT22;12385;51.412;5.540;2023-10-31T10:15:50;12.10;99.90
24262;DHT22;12385;51.412;5.540;2023-10-31T10:18:30;12.10;99.90
24262;DHT22;12385;51.412;5.540;2023-10-31T10:21:00;12.20;99.90
24262;DHT22;12385;51.412;5.540;2023-10-31T10:23:26;12.30;99.90
24262;DHT22;12385;51.412;5.540;2023-10-31T10:25:53;12.30;99.90
24262;DHT22;12385;51.412;5.540;2023-10-31T10:28:19;12.30;99.90
24262;DHT22;12385;51.412;5.540;2023-10-31T10:30:49;12.30;99.90
24262;DHT22;12385;51.412;5.540;2023-10-31T10:33:15;12.20;99.90
24262;DHT22;12385;51.412;5.540;2023-10-31T10:35:41;12.20;99.90
24262;DHT22;12385;51.412;5.540;2023-10-31T10:38:11;12.20;99.90
24262;DHT22;12385;51.412;5.540;2023-10-31T10:40:40;12.20;99.90
24262;DHT22;12385;51.412;5.540;2023-10-31T10:43:24;12.10;99.90
24262;DHT22;12385;51.412;5.540;2023-10-31T10:45:54;12.10;99.90
24262;DHT22;12385;51.412;5.540;2023-10-31T10:48:25;12.20;99.90
24262;DHT22;12385;51.412;5.540;2023-10-31T10:50:57;12.20;99.90
24262;DHT22;12385;51.412;5.540;2023-10-31T10:53:24;12.20;99.90
24262;DHT22;12385;51.412;5.540;2023-10-31T10:56:46;12.20;99.90
24262;DHT22;12385;51.412;5.540;2023-10-31T10:59:30;12.20;99.90
24262;DHT22;12385;51.412;5.540;2023-10-31T11:01:58;12.20;99.90
24262;DHT22;12385;51.412;5.540;2023-10-31T11:04:26;12.20;99.90
24262;DHT22;12385;51.412;5.540;2023-10-31T11:06:52;12.30;99.90
24262;DHT22;12385;51.412;5.540;2023-10-31T11:09:18;12.40;99.90
24262;DHT22;12385;51.412;5.540;2023-10-31T11:11:45;12.50;99.90
24262;DHT22;12385;51.412;5.540;2023-10-31T11:14:15;12.60;99.90
24262;DHT22;12385;51.412;5.540;2023-10-31T11:16:55;12.70;99.90
24262;DHT22;12385;51.412;5.540;2023-10-31T11:19:23;12.80;99.90
24262;DHT22;12385;51.412;5.540;2023-10-31T11:21:58;13.00;99.90
24262;DHT22;12385;51.412;5.540;2023-10-31T11:24:36;13.00;99.90
24262;DHT22;12385;51.412;5.540;2023-10-31T11:27:03;13.10;99.90
24262;DHT22;12385;51.412;5.540;2023-10-31T11:29:31;13.20;99.90
24262;DHT22;12385;51.412;5.540;2023-10-31T11:31:56;13.20;99.90
24262;DHT22;12385;51.412;5.540;2023-10-31T11:34:23;13.20;99.90
24262;DHT22;12385;51.412;5.540;2023-10-31T11:36:51;13.20;99.90
24262;DHT22;12385;51.412;5.540;2023-10-31T11:39:21;13.20;99.90
24262;DHT22;12385;51.412;5.540;2023-10-31T11:41:55;13.10;99.90
24262;DHT22;12385;51.412;5.540;2023-10-31T11:44:27;13.20;99.90
24262;DHT22;12385;51.412;5.540;2023-10-31T11:46:53;13.20;99.90
24262;DHT22;12385;51.412;5.540;2023-10-31T11:49:48;13.20;99.90
24262;DHT22;12385;51.412;5.540;2023-10-31T11:52:15;13.30;99.90
24262;DHT22;12385;51.412;5.540;2023-10-31T11:54:42;13.30;99.90
24262;DHT22;12385;51.412;5.540;2023-10-31T11:57:07;13.40;99.90
24262;DHT22;12385;51.412;5.540;2023-10-31T11:59:39;13.50;99.90
24262;DHT22;12385;51.412;5.540;2023-10-31T12:02:15;13.50;99.90
24262;DHT22;12385;51.412;5.540;2023-10-31T12:04:41;13.60;99.90
24262;DHT22;12385;51.412;5.540;2023-10-31T12:07:07;13.60;99.90
24262;DHT22;12385;51.412;5.540;2023-10-31T12:09:36;13.70;99.90
24262;DHT22;12385;51.412;5.540;2023-10-31T12:12:10;13.90;99.90
24262;DHT22;12385;51.412;5.540;2023-10-31T12:14:35;13.90;99.90
24262;DHT22;12385;51.412;5.540;2023-10-31T12:17:04;14.00;99.90
24262;DHT22;12385;51.412;5.540;2023-10-31T12:19:30;14.00;99.90
24262;DHT22;12385;51.412;5.540;2023-10-31T12:21:55;14.10;99.90
24262;DHT22;12385;51.412;5.540;2023-10-31T12:24:22;14.20;99.90
24262;DHT22;12385;51.412;5.540;2023-10-31T12:26:48;14.20;99.90
24262;DHT22;12385;51.412;5.540;2023-10-31T12:29:15;14.20;99.90
24262;DHT22;12385;51.412;5.540;2023-10-31T12:31:49;14.20;99.90
24262;DHT22;12385;51.412;5.540;2023-10-31T12:34:16;14.20;99.90
24262;DHT22;12385;51.412;5.540;2023-10-31T12:36:45;14.10;99.90
24262;DHT22;12385;51.412;5.540;2023-10-31T12:39:14;14.10;99.90
24262;DHT22;12385;51.412;5.540;2023-10-31T12:41:42;14.10;99.90
24262;DHT22;12385;51.412;5.540;2023-10-31T12:44:09;14.10;99.90
24262;DHT22;12385;51.412;5.540;2023-10-31T12:46:39;14.10;99.90
24262;DHT22;12385;51.412;5.540;2023-10-31T12:49:10;14.10;99.90
24262;DHT22;12385;51.412;5.540;2023-10-31T12:51:36;14.20;99.90
24262;DHT22;12385;51.412;5.540;2023-10-31T12:54:01;14.30;99.90
24262;DHT22;12385;51.412;5.540;2023-10-31T12:56:41;14.30;99.90
24262;DHT22;12385;51.412;5.540;2023-10-31T12:59:08;14.40;99.90
24262;DHT22;12385;51.412;5.540;2023-10-31T13:01:43;14.40;99.90
24262;DHT22;12385;51.412;5.540;2023-10-31T13:04:09;14.30;99.90
24262;DHT22;12385;51.412;5.540;2023-10-31T13:06:35;14.30;99.90
24262;DHT22;12385;51.412;5.540;2023-10-31T13:09:02;14.10;99.90
24262;DHT22;12385;51.412;5.540;2023-10-31T13:11:32;14.10;99.90
24262;DHT22;12385;51.412;5.540;2023-10-31T13:13:58;14.00;99.90
24262;DHT22;12385;51.412;5.540;2023-10-31T13:16:25;14.00;99.90
24262;DHT22;12385;51.412;5.540;2023-10-31T13:18:54;13.90;99.90
24262;DHT22;12385;51.412;5.540;2023-10-31T13:21:22;13.90;99.90
24262;DHT22;12385;51.412;5.540;2023-10-31T13:23:48;14.10;99.90
24262;DHT22;12385;51.412;5.540;2023-10-31T13:26:14;14.30;99.90
24262;DHT22;12385;51.412;5.540;2023-10-31T13:28:40;14.20;99.90
24262;DHT22;12385;51.412;5.540;2023-10-31T13:31:06;14.30;99.90
24262;DHT22;12385;51.412;5.540;2023-10-31T13:33:33;14.20;99.90
24262;DHT22;12385;51.412;5.540;2023-10-31T13:35:59;14.10;99.90
24262;DHT22;12385;51.412;5.540;2023-10-31T13:38:24;14.00;99.90
24262;DHT22;12385;51.412;5.540;2023-10-31T13:40:50;13.90;99.90
24262;DHT22;12385;51.412;5.540;2023-10-31T13:43:15;13.90;99.90
24262;DHT22;12385;51.412;5.540;2023-10-31T13:45:41;13.90;99.90
24262;DHT22;12385;51.412;5.540;2023-10-31T13:48:07;13.90;99.90
24262;DHT22;12385;51.412;5.540;2023-10-31T13:50:33;14.00;99.90
24262;DHT22;12385;51.412;5.540;2023-10-31T13:52:59;14.10;99.90
24262;DHT22;12385;51.412;5.540;2023-10-31T13:55:24;14.10;99.90
24262;DHT22;12385;51.412;5.540;2023-10-31T13:57:51;14.00;99.90
24262;DHT22;12385;51.412;5.540;2023-10-31T14:00:16;14.00;99.90
24262;DHT22;12385;51.412;5.540;2023-10-31T14:02:42;13.90;99.90
24262;DHT22;12385;51.412;5.540;2023-10-31T14:05:08;13.90;99.90
24262;DHT22;12385;51.412;5.540;2023-10-31T14:07:34;13.80;99.90
24262;DHT22;12385;51.412;5.540;2023-10-31T14:10:00;13.70;99.90
24262;DHT22;12385;51.412;5.540;2023-10-31T14:12:26;13.70;99.90
24262;DHT22;12385;51.412;5.540;2023-10-31T14:14:54;13.60;99.90
24262;DHT22;12385;51.412;5.540;2023-10-31T14:17:20;13.60;99.90
24262;DHT22;12385;51.412;5.540;2023-10-31T14:19:48;13.70;99.90
24262;DHT22;12385;51.412;5.540;2023-10-31T14:22:14;13.60;99.90
24262;DHT22;12385;51.412;5.540;2023-10-31T14:24:40;13.60;99.90
24262;DHT22;12385;51.412;5.540;2023-10-31T14:27:05;13.50;99.90
24262;DHT22;12385;51.412;5.540;2023-10-31T14:29:31;13.50;99.90
24262;DHT22;12385;51.412;5.540;2023-10-31T14:31:56;13.40;99.90
24262;DHT22;12385;51.412;5.540;2023-10-31T14:34:23;13.30;99.90
24262;DHT22;12385;51.412;5.540;2023-10-31T14:36:49;13.10;99.90
24262;DHT22;12385;51.412;5.540;2023-10-31T14:39:15;13.00;99.90
24262;DHT22;12385;51.412;5.540;2023-10-31T14:41:41;12.90;99.90
24262;DHT22;12385;51.412;5.540;2023-10-31T14:44:06;12.70;99.90
24262;DHT22;12385;51.412;5.540;2023-10-31T14:46:33;12.70;99.90
24262;DHT22;12385;51.412;5.540;2023-10-31T14:48:59;12.60;99.90
24262;DHT22;12385;51.412;5.540;2023-10-31T14:51:25;12.50;99.90
24262;DHT22;12385;51.412;5.540;2023-10-31T14:53:50;12.50;99.90
24262;DHT22;12385;51.412;5.540;2023-10-31T14:56:16;12.40;99.90
24262;DHT22;12385;51.412;5.540;2023-10-31T14:58:43;12.40;99.90
24262;DHT22;12385;51.412;5.540;2023-10-31T15:01:09;12.30;99.90
24262;DHT22;12385;51.412;5.540;2023-10-31T15:03:34;12.30;99.90
24262;DHT22;12385;51.412;5.540;2023-10-31T15:06:00;12.30;99.90
24262;DHT22;12385;51.412;5.540;2023-10-31T15:08:26;12.30;99.90
24262;DHT22;12385;51.412;5.540;2023-10-31T15:10:52;12.30;99.90
24262;DHT22;12385;51.412;5.540;2023-10-31T15:13:20;12.30;99.90
24262;DHT22;12385;51.412;5.540;2023-10-31T15:15:46;12.30;99.90
24262;DHT22;12385;51.412;5.540;2023-10-31T15:18:12;12.40;99.90
24262;DHT22;12385;51.412;5.540;2023-10-31T15:20:38;12.40;99.90
24262;DHT22;12385;51.412;5.540;2023-10-31T15:23:03;12.40;99.90
24262;DHT22;12385;51.412;5.540;2023-10-31T15:25:29;12.40;99.90
24262;DHT22;12385;51.412;5.540;2023-10-31T15:27:54;12.40;99.90